sensor_id;sensor_type;location;lat;lon;timestamp;temperature;humidity
74101;DHT22;62462;52.530;21.682;2023-03-23T00:01:20;12.30;66.90
74101;DHT22;62462;52.530;21.682;2023-03-23T00:03:51;12.20;66.80
74101;DHT22;62462;52.530;21.682;2023-03-23T00:06:19;12.20;66.70
74101;DHT22;62462;52.530;21.682;2023-03-23T00:08:47;12.30;66.70
74101;DHT22;62462;52.530;21.682;2023-03-23T00:11:21;12.20;66.60
74101;DHT22;62462;52.530;21.682;2023-03-23T00:13:49;12.20;66.70
74101;DHT22;62462;52.530;21.682;2023-03-23T00:16:20;12.20;66.90
74101;DHT22;62462;52.530;21.682;2023-03-23T00:18:55;12.20;66.80
74101;DHT22;62462;52.530;21.682;2023-03-23T00:21:27;12.20;67.00
74101;DHT22;62462;52.530;21.682;2023-03-23T00:24:16;12.20;67.00
74101;DHT22;62462;52.530;21.682;2023-03-23T00:26:47;12.20;67.00
74101;DHT22;62462;52.530;21.682;2023-03-23T00:29:24;12.20;67.20
74101;DHT22;62462;52.530;21.682;2023-03-23T00:31:52;12.20;67.30
74101;DHT22;62462;52.530;21.682;2023-03-23T00:34:20;12.10;67.40
74101;DHT22;62462;52.530;21.682;2023-03-23T00:36:48;12.10;67.40
74101;DHT22;62462;52.530;21.682;2023-03-23T00:39:15;12.10;67.50
74101;DHT22;62462;52.530;21.682;2023-03-23T00:41:42;12.10;67.40
74101;DHT22;62462;52.530;21.682;2023-03-23T00:44:09;12.10;67.70
74101;DHT22;62462;52.530;21.682;2023-03-23T00:46:35;12.10;67.60
74101;DHT22;62462;52.530;21.682;2023-03-23T00:49:11;12.10;67.50
74101;DHT22;62462;52.530;21.682;2023-03-23T00:51:38;12.10;67.40
74101;DHT22;62462;52.530;21.682;2023-03-23T00:54:04;12.10;67.40
74101;DHT22;62462;52.530;21.682;2023-03-23T00:56:30;12.10;67.40
74101;DHT22;62462;52.530;21.682;2023-03-23T00:58:56;12.10;67.30
74101;DHT22;62462;52.530;21.682;2023-03-23T01:01:22;12.10;67.20
74101;DHT22;62462;52.530;21.682;2023-03-23T01:03:48;12.10;67.20
74101;DHT22;62462;52.530;21.682;2023-03-23T01:06:15;12.10;67.20
74101;DHT22;62462;52.530;21.682;2023-03-23T01:08:41;12.10;67.10
74101;DHT22;62462;52.530;21.682;2023-03-23T01:11:15;12.10;67.10
74101;DHT22;62462;52.530;21.682;2023-03-23T01:13:44;12.00;67.10
74101;DHT22;62462;52.530;21.682;2023-03-23T01:16:10;12.00;67.20
74101;DHT22;62462;52.530;21.682;2023-03-23T01:18:37;12.00;67.30
74101;DHT22;62462;52.530;21.682;2023-03-23T01:21:11;12.00;67.30
74101;DHT22;62462;52.530;21.682;2023-03-23T01:23:37;12.00;67.30
74101;DHT22;62462;52.530;21.682;2023-03-23T01:26:05;12.00;67.20
74101;DHT22;62462;52.530;21.682;2023-03-23T01:28:33;12.00;67.30
74101;DHT22;62462;52.530;21.682;2023-03-23T01:31:04;12.00;67.40
74101;DHT22;62462;52.530;21.682;2023-03-23T01:33:31;12.00;67.50
74101;DHT22;62462;52.530;21.682;2023-03-23T01:36:01;11.90;67.80
74101;DHT22;62462;52.530;21.682;2023-03-23T01:38:27;11.90;68.00
74101;DHT22;62462;52.530;21.682;2023-03-23T01:40:53;11.90;68.30
74101;DHT22;62462;52.530;21.682;2023-03-23T01:43:19;11.90;68.40
74101;DHT22;62462;52.530;21.682;2023-03-23T01:45:45;11.90;68.40
74101;DHT22;62462;52.530;21.682;2023-03-23T01:50:51;11.90;68.80
74101;DHT22;62462;52.530;21.682;2023-03-23T01:53:18;11.80;68.80
74101;DHT22;62462;52.530;21.682;2023-03-23T01:55:46;11.80;68.80
74101;DHT22;62462;52.530;21.682;2023-03-23T01:58:19;11.90;68.70
74101;DHT22;62462;52.530;21.682;2023-03-23T02:00:46;11.90;68.60
74101;DHT22;62462;52.530;21.682;2023-03-23T02:03:14;11.90;68.50
74101;DHT22;62462;52.530;21.682;2023-03-23T02:05:43;11.90;68.50
74101;DHT22;62462;52.530;21.682;2023-03-23T02:08:10;11.90;68.40
74101;DHT22;62462;52.530;21.682;2023-03-23T02:10:38;11.90;68.50
74101;DHT22;62462;52.530;21.682;2023-03-23T02:13:07;11.90;68.30
74101;DHT22;62462;52.530;21.682;2023-03-23T02:16:03;11.90;68.30
74101;DHT22;62462;52.530;21.682;2023-03-23T02:27:07;11.80;69.10
74101;DHT22;62462;52.530;21.682;2023-03-23T02:34:53;11.80;69.30
74101;DHT22;62462;52.530;21.682;2023-03-23T02:37:39;11.80;69.90
74101;DHT22;62462;52.530;21.682;2023-03-23T02:40:17;11.80;70.00
74101;DHT22;62462;52.530;21.682;2023-03-23T02:42:48;11.80;70.00
74101;DHT22;62462;52.530;21.682;2023-03-23T02:45:16;11.80;70.00
74101;DHT22;62462;52.530;21.682;2023-03-23T02:47:43;11.80;70.00
74101;DHT22;62462;52.530;21.682;2023-03-23T02:50:14;11.80;69.90
74101;DHT22;62462;52.530;21.682;2023-03-23T02:52:43;11.80;69.90
74101;DHT22;62462;52.530;21.682;2023-03-23T02:55:11;11.80;70.00
74101;DHT22;62462;52.530;21.682;2023-03-23T02:57:38;11.80;70.00
74101;DHT22;62462;52.530;21.682;2023-03-23T03:00:06;11.80;70.10
74101;DHT22;62462;52.530;21.682;2023-03-23T03:02:41;11.80;70.10
74101;DHT22;62462;52.530;21.682;2023-03-23T03:05:34;11.80;70.00
74101;DHT22;62462;52.530;21.682;2023-03-23T03:11:10;11.80;69.90
74101;DHT22;62462;52.530;21.682;2023-03-23T03:17:13;11.80;69.70
74101;DHT22;62462;52.530;21.682;2023-03-23T03:19:45;11.80;69.90
74101;DHT22;62462;52.530;21.682;2023-03-23T03:22:12;11.80;70.10
74101;DHT22;62462;52.530;21.682;2023-03-23T03:24:40;11.80;70.10
74101;DHT22;62462;52.530;21.682;2023-03-23T03:27:12;11.80;70.10
74101;DHT22;62462;52.530;21.682;2023-03-23T03:29:41;11.80;70.20
74101;DHT22;62462;52.530;21.682;2023-03-23T03:32:12;11.80;70.30
74101;DHT22;62462;52.530;21.682;2023-03-23T03:34:38;11.80;70.90
74101;DHT22;62462;52.530;21.682;2023-03-23T03:37:05;11.80;71.30
74101;DHT22;62462;52.530;21.682;2023-03-23T03:39:35;11.80;70.80
74101;DHT22;62462;52.530;21.682;2023-03-23T03:42:03;11.80;71.00
74101;DHT22;62462;52.530;21.682;2023-03-23T03:44:29;11.70;71.20
74101;DHT22;62462;52.530;21.682;2023-03-23T03:46:55;11.80;71.10
74101;DHT22;62462;52.530;21.682;2023-03-23T03:49:20;11.70;71.00
74101;DHT22;62462;52.530;21.682;2023-03-23T03:51:48;11.80;71.20
74101;DHT22;62462;52.530;21.682;2023-03-23T03:54:13;11.70;71.20
74101;DHT22;62462;52.530;21.682;2023-03-23T03:56:39;11.80;71.10
74101;DHT22;62462;52.530;21.682;2023-03-23T03:59:09;11.80;71.40
74101;DHT22;62462;52.530;21.682;2023-03-23T04:01:37;11.70;71.20
74101;DHT22;62462;52.530;21.682;2023-03-23T04:04:03;11.70;71.00
74101;DHT22;62462;52.530;21.682;2023-03-23T04:06:30;11.70;71.00
74101;DHT22;62462;52.530;21.682;2023-03-23T04:08:58;11.60;71.40
74101;DHT22;62462;52.530;21.682;2023-03-23T04:11:25;11.60;71.70
74101;DHT22;62462;52.530;21.682;2023-03-23T04:13:51;11.60;71.90
74101;DHT22;62462;52.530;21.682;2023-03-23T04:16:17;11.60;71.90
74101;DHT22;62462;52.530;21.682;2023-03-23T04:18:44;11.60;71.70
74101;DHT22;62462;52.530;21.682;2023-03-23T04:21:10;11.60;72.00
74101;DHT22;62462;52.530;21.682;2023-03-23T04:23:36;11.50;72.30
74101;DHT22;62462;52.530;21.682;2023-03-23T04:26:03;11.50;72.20
74101;DHT22;62462;52.530;21.682;2023-03-23T04:28:29;11.50;72.30
74101;DHT22;62462;52.530;21.682;2023-03-23T04:30:59;11.50;72.30
74101;DHT22;62462;52.530;21.682;2023-03-23T04:33:27;11.40;72.50
74101;DHT22;62462;52.530;21.682;2023-03-23T04:35:55;11.40;72.80
74101;DHT22;62462;52.530;21.682;2023-03-23T04:38:22;11.40;72.70
74101;DHT22;62462;52.530;21.682;2023-03-23T04:40:51;11.40;72.90
74101;DHT22;62462;52.530;21.682;2023-03-23T04:43:18;11.40;72.50
74101;DHT22;62462;52.530;21.682;2023-03-23T04:45:53;11.40;72.80
74101;DHT22;62462;52.530;21.682;2023-03-23T04:48:23;11.40;72.60
74101;DHT22;62462;52.530;21.682;2023-03-23T04:50:49;11.40;72.60
74101;DHT22;62462;52.530;21.682;2023-03-23T04:53:16;11.40;72.70
74101;DHT22;62462;52.530;21.682;2023-03-23T04:55:44;11.40;73.00
74101;DHT22;62462;52.530;21.682;2023-03-23T04:58:10;11.40;73.10
74101;DHT22;62462;52.530;21.682;2023-03-23T05:00:38;11.40;72.80
74101;DHT22;62462;52.530;21.682;2023-03-23T05:03:04;11.40;72.90
74101;DHT22;62462;52.530;21.682;2023-03-23T05:05:31;11.40;73.00
74101;DHT22;62462;52.530;21.682;2023-03-23T05:07:57;11.40;72.80
74101;DHT22;62462;52.530;21.682;2023-03-23T05:10:23;11.40;72.90
74101;DHT22;62462;52.530;21.682;2023-03-23T05:12:50;11.40;72.70
74101;DHT22;62462;52.530;21.682;2023-03-23T05:15:16;11.50;72.40
74101;DHT22;62462;52.530;21.682;2023-03-23T05:17:43;11.50;72.60
74101;DHT22;62462;52.530;21.682;2023-03-23T05:20:16;11.50;72.70
74101;DHT22;62462;52.530;21.682;2023-03-23T05:22:45;11.50;72.70
74101;DHT22;62462;52.530;21.682;2023-03-23T05:25:13;11.50;72.80
74101;DHT22;62462;52.530;21.682;2023-03-23T05:27:39;11.50;72.80
74101;DHT22;62462;52.530;21.682;2023-03-23T05:30:09;11.60;73.00
74101;DHT22;62462;52.530;21.682;2023-03-23T05:32:36;11.60;73.00
74101;DHT22;62462;52.530;21.682;2023-03-23T05:35:03;11.60;73.00
74101;DHT22;62462;52.530;21.682;2023-03-23T05:37:30;11.60;73.10
74101;DHT22;62462;52.530;21.682;2023-03-23T05:39:59;11.60;73.20
74101;DHT22;62462;52.530;21.682;2023-03-23T05:42:34;11.60;73.10
74101;DHT22;62462;52.530;21.682;2023-03-23T05:45:04;11.60;73.10
74101;DHT22;62462;52.530;21.682;2023-03-23T05:47:31;11.70;73.10
74101;DHT22;62462;52.530;21.682;2023-03-23T05:49:57;11.80;72.80
74101;DHT22;62462;52.530;21.682;2023-03-23T05:52:24;11.80;72.70
74101;DHT22;62462;52.530;21.682;2023-03-23T05:54:51;11.90;72.40
74101;DHT22;62462;52.530;21.682;2023-03-23T05:57:17;12.00;72.20
74101;DHT22;62462;52.530;21.682;2023-03-23T05:59:44;12.00;71.90
74101;DHT22;62462;52.530;21.682;2023-03-23T06:02:11;12.00;71.70
74101;DHT22;62462;52.530;21.682;2023-03-23T06:04:37;12.00;72.00
74101;DHT22;62462;52.530;21.682;2023-03-23T06:07:04;12.10;71.80
74101;DHT22;62462;52.530;21.682;2023-03-23T06:09:30;12.10;71.50
74101;DHT22;62462;52.530;21.682;2023-03-23T06:11:56;12.10;71.50
74101;DHT22;62462;52.530;21.682;2023-03-23T06:14:22;12.20;71.30
74101;DHT22;62462;52.530;21.682;2023-03-23T06:16:48;12.20;71.40
74101;DHT22;62462;52.530;21.682;2023-03-23T06:19:15;12.20;71.30
74101;DHT22;62462;52.530;21.682;2023-03-23T06:21:41;12.20;71.30
74101;DHT22;62462;52.530;21.682;2023-03-23T06:24:08;12.20;71.20
74101;DHT22;62462;52.530;21.682;2023-03-23T06:26:36;12.20;71.40
74101;DHT22;62462;52.530;21.682;2023-03-23T06:29:04;12.30;71.40
74101;DHT22;62462;52.530;21.682;2023-03-23T06:31:42;12.30;71.50
74101;DHT22;62462;52.530;21.682;2023-03-23T06:34:09;12.30;71.10
74101;DHT22;62462;52.530;21.682;2023-03-23T06:36:36;12.30;71.00
74101;DHT22;62462;52.530;21.682;2023-03-23T06:39:02;12.30;70.90
74101;DHT22;62462;52.530;21.682;2023-03-23T06:41:33;12.40;71.10
74101;DHT22;62462;52.530;21.682;2023-03-23T06:44:00;12.40;71.00
74101;DHT22;62462;52.530;21.682;2023-03-23T06:46:27;12.50;70.80
74101;DHT22;62462;52.530;21.682;2023-03-23T06:48:53;12.50;70.50
74101;DHT22;62462;52.530;21.682;2023-03-23T06:51:20;12.60;70.00
74101;DHT22;62462;52.530;21.682;2023-03-23T06:53:46;12.60;70.00
74101;DHT22;62462;52.530;21.682;2023-03-23T06:56:13;12.70;69.70
74101;DHT22;62462;52.530;21.682;2023-03-23T06:58:39;12.90;69.20
74101;DHT22;62462;52.530;21.682;2023-03-23T07:01:07;13.00;68.90
74101;DHT22;62462;52.530;21.682;2023-03-23T07:03:35;13.20;68.30
74101;DHT22;62462;52.530;21.682;2023-03-23T07:06:01;13.30;68.00
74101;DHT22;62462;52.530;21.682;2023-03-23T07:08:27;13.50;67.00
74101;DHT22;62462;52.530;21.682;2023-03-23T07:10:54;13.50;67.00
74101;DHT22;62462;52.530;21.682;2023-03-23T07:13:21;13.70;66.60
74101;DHT22;62462;52.530;21.682;2023-03-23T07:15:46;13.70;65.50
74101;DHT22;62462;52.530;21.682;2023-03-23T07:18:13;13.80;65.60
74101;DHT22;62462;52.530;21.682;2023-03-23T07:20:39;13.80;65.60
74101;DHT22;62462;52.530;21.682;2023-03-23T07:23:05;13.90;65.00
74101;DHT22;62462;52.530;21.682;2023-03-23T07:25:32;14.10;64.80
74101;DHT22;62462;52.530;21.682;2023-03-23T07:27:59;14.30;64.80
74101;DHT22;62462;52.530;21.682;2023-03-23T07:30:26;14.50;63.60
74101;DHT22;62462;52.530;21.682;2023-03-23T07:32:52;14.60;63.00
74101;DHT22;62462;52.530;21.682;2023-03-23T07:35:18;14.70;62.60
74101;DHT22;62462;52.530;21.682;2023-03-23T07:37:44;14.90;62.00
74101;DHT22;62462;52.530;21.682;2023-03-23T07:40:11;15.00;61.00
74101;DHT22;62462;52.530;21.682;2023-03-23T07:42:45;15.20;61.20
74101;DHT22;62462;52.530;21.682;2023-03-23T07:45:12;15.30;61.20
74101;DHT22;62462;52.530;21.682;2023-03-23T07:47:39;15.40;59.90
74101;DHT22;62462;52.530;21.682;2023-03-23T07:50:06;15.40;59.30
74101;DHT22;62462;52.530;21.682;2023-03-23T07:52:35;15.40;58.70
74101;DHT22;62462;52.530;21.682;2023-03-23T07:55:02;15.50;59.80
74101;DHT22;62462;52.530;21.682;2023-03-23T07:57:29;15.60;59.40
74101;DHT22;62462;52.530;21.682;2023-03-23T07:59:56;15.80;59.00
74101;DHT22;62462;52.530;21.682;2023-03-23T08:02:24;16.00;57.50
74101;DHT22;62462;52.530;21.682;2023-03-23T08:04:50;16.00;57.20
74101;DHT22;62462;52.530;21.682;2023-03-23T08:07:17;16.00;56.70
74101;DHT22;62462;52.530;21.682;2023-03-23T08:09:45;16.00;56.20
74101;DHT22;62462;52.530;21.682;2023-03-23T08:12:11;15.90;56.30
74101;DHT22;62462;52.530;21.682;2023-03-23T08:14:37;15.90;57.10
74101;DHT22;62462;52.530;21.682;2023-03-23T08:17:04;16.10;57.40
74101;DHT22;62462;52.530;21.682;2023-03-23T08:19:30;16.40;56.80
74101;DHT22;62462;52.530;21.682;2023-03-23T08:21:56;16.60;55.30
74101;DHT22;62462;52.530;21.682;2023-03-23T08:24:22;16.80;54.30
74101;DHT22;62462;52.530;21.682;2023-03-23T08:26:49;16.90;54.80
74101;DHT22;62462;52.530;21.682;2023-03-23T08:29:14;17.00;53.80
74101;DHT22;62462;52.530;21.682;2023-03-23T08:31:41;17.20;53.50
74101;DHT22;62462;52.530;21.682;2023-03-23T08:34:07;17.30;53.40
74101;DHT22;62462;52.530;21.682;2023-03-23T08:36:34;17.30;53.20
74101;DHT22;62462;52.530;21.682;2023-03-23T08:39:00;17.50;52.90
74101;DHT22;62462;52.530;21.682;2023-03-23T08:41:26;17.60;51.70
74101;DHT22;62462;52.530;21.682;2023-03-23T08:43:52;17.80;52.40
74101;DHT22;62462;52.530;21.682;2023-03-23T08:46:18;17.80;50.50
74101;DHT22;62462;52.530;21.682;2023-03-23T08:48:46;17.90;51.20
74101;DHT22;62462;52.530;21.682;2023-03-23T08:51:12;18.00;51.00
74101;DHT22;62462;52.530;21.682;2023-03-23T08:53:38;18.10;49.80
74101;DHT22;62462;52.530;21.682;2023-03-23T08:56:09;18.20;49.50
74101;DHT22;62462;52.530;21.682;2023-03-23T08:58:37;18.20;49.70
74101;DHT22;62462;52.530;21.682;2023-03-23T09:01:04;18.40;49.50
74101;DHT22;62462;52.530;21.682;2023-03-23T09:03:33;18.60;49.00
74101;DHT22;62462;52.530;21.682;2023-03-23T09:06:03;18.70;47.90
74101;DHT22;62462;52.530;21.682;2023-03-23T09:08:30;18.80;47.40
74101;DHT22;62462;52.530;21.682;2023-03-23T09:11:01;18.90;47.80
74101;DHT22;62462;52.530;21.682;2023-03-23T09:13:28;19.10;46.80
74101;DHT22;62462;52.530;21.682;2023-03-23T09:15:54;19.10;46.20
74101;DHT22;62462;52.530;21.682;2023-03-23T09:18:20;18.80;46.70
74101;DHT22;62462;52.530;21.682;2023-03-23T09:20:50;18.60;46.00
74101;DHT22;62462;52.530;21.682;2023-03-23T09:23:16;18.30;47.10
74101;DHT22;62462;52.530;21.682;2023-03-23T09:25:42;18.10;48.40
74101;DHT22;62462;52.530;21.682;2023-03-23T09:28:08;18.00;47.80
74101;DHT22;62462;52.530;21.682;2023-03-23T09:30:35;17.90;48.80
74101;DHT22;62462;52.530;21.682;2023-03-23T09:33:03;17.80;48.80
74101;DHT22;62462;52.530;21.682;2023-03-23T09:35:32;17.70;49.00
74101;DHT22;62462;52.530;21.682;2023-03-23T09:38:00;17.60;48.60
74101;DHT22;62462;52.530;21.682;2023-03-23T09:40:48;17.60;49.30
74101;DHT22;62462;52.530;21.682;2023-03-23T09:43:43;17.60;49.30
74101;DHT22;62462;52.530;21.682;2023-03-23T09:46:15;17.60;49.80
74101;DHT22;62462;52.530;21.682;2023-03-23T09:48:57;17.60;49.70
74101;DHT22;62462;52.530;21.682;2023-03-23T09:56:46;17.60;48.70
74101;DHT22;62462;52.530;21.682;2023-03-23T10:01:47;17.60;47.70
74101;DHT22;62462;52.530;21.682;2023-03-23T10:04:35;17.50;48.30
74101;DHT22;62462;52.530;21.682;2023-03-23T10:09:37;17.40;48.40
74101;DHT22;62462;52.530;21.682;2023-03-23T10:15:14;17.50;47.50
74101;DHT22;62462;52.530;21.682;2023-03-23T10:20:18;17.50;47.60
74101;DHT22;62462;52.530;21.682;2023-03-23T10:23:04;17.50;47.50
74101;DHT22;62462;52.530;21.682;2023-03-23T10:25:35;17.50;47.30
74101;DHT22;62462;52.530;21.682;2023-03-23T10:28:19;17.50;47.70
74101;DHT22;62462;52.530;21.682;2023-03-23T10:30:49;17.50;48.00
74101;DHT22;62462;52.530;21.682;2023-03-23T10:36:51;17.60;48.00
74101;DHT22;62462;52.530;21.682;2023-03-23T10:39:29;17.60;47.40
74101;DHT22;62462;52.530;21.682;2023-03-23T10:41:47;17.70;46.70
74101;DHT22;62462;52.530;21.682;2023-03-23T10:44:17;17.80;46.80
74101;DHT22;62462;52.530;21.682;2023-03-23T10:55:20;18.70;44.70
74101;DHT22;62462;52.530;21.682;2023-03-23T10:58:05;18.70;43.40
74101;DHT22;62462;52.530;21.682;2023-03-23T11:00:31;18.70;44.40
74101;DHT22;62462;52.530;21.682;2023-03-23T11:03:02;18.70;44.30
74101;DHT22;62462;52.530;21.682;2023-03-23T11:05:51;18.80;44.40
74101;DHT22;62462;52.530;21.682;2023-03-23T11:08:23;18.70;44.00
74101;DHT22;62462;52.530;21.682;2023-03-23T11:13:31;19.00;43.30
74101;DHT22;62462;52.530;21.682;2023-03-23T11:15:58;19.20;42.90
74101;DHT22;62462;52.530;21.682;2023-03-23T11:18:42;19.40;43.00
74101;DHT22;62462;52.530;21.682;2023-03-23T11:21:08;19.40;42.10
74101;DHT22;62462;52.530;21.682;2023-03-23T11:23:39;19.30;41.80
74101;DHT22;62462;52.530;21.682;2023-03-23T11:26:14;19.10;42.20
74101;DHT22;62462;52.530;21.682;2023-03-23T11:29:10;19.00;42.10
74101;DHT22;62462;52.530;21.682;2023-03-23T11:34:15;19.10;42.30
74101;DHT22;62462;52.530;21.682;2023-03-23T11:36:47;19.20;41.10
74101;DHT22;62462;52.530;21.682;2023-03-23T11:39:47;19.30;41.90
74101;DHT22;62462;52.530;21.682;2023-03-23T11:42:23;19.30;42.10
74101;DHT22;62462;52.530;21.682;2023-03-23T11:44:54;19.40;42.20
74101;DHT22;62462;52.530;21.682;2023-03-23T11:47:36;19.40;41.70
74101;DHT22;62462;52.530;21.682;2023-03-23T11:52:50;19.80;41.80
74101;DHT22;62462;52.530;21.682;2023-03-23T11:58:05;20.50;38.70
74101;DHT22;62462;52.530;21.682;2023-03-23T12:00:32;20.60;38.50
74101;DHT22;62462;52.530;21.682;2023-03-23T12:03:34;20.60;38.60
74101;DHT22;62462;52.530;21.682;2023-03-23T12:06:10;20.70;38.10
74101;DHT22;62462;52.530;21.682;2023-03-23T12:14:52;21.00;36.70
74101;DHT22;62462;52.530;21.682;2023-03-23T12:20:21;20.90;37.50
74101;DHT22;62462;52.530;21.682;2023-03-23T12:22:59;20.80;38.30
74101;DHT22;62462;52.530;21.682;2023-03-23T12:31:24;21.10;37.20
74101;DHT22;62462;52.530;21.682;2023-03-23T12:34:15;21.30;37.10
74101;DHT22;62462;52.530;21.682;2023-03-23T12:48:13;20.90;36.30
74101;DHT22;62462;52.530;21.682;2023-03-23T12:51:01;20.70;37.10
74101;DHT22;62462;52.530;21.682;2023-03-23T12:56:38;21.10;36.20
74101;DHT22;62462;52.530;21.682;2023-03-23T13:01:48;21.10;35.90
74101;DHT22;62462;52.530;21.682;2023-03-23T13:04:20;21.20;35.60
74101;DHT22;62462;52.530;21.682;2023-03-23T13:06:48;21.10;35.30
74101;DHT22;62462;52.530;21.682;2023-03-23T13:09:22;20.80;36.10
74101;DHT22;62462;52.530;21.682;2023-03-23T13:11:51;20.50;36.40
74101;DHT22;62462;52.530;21.682;2023-03-23T13:20:11;20.20;38.00
74101;DHT22;62462;52.530;21.682;2023-03-23T13:22:44;20.00;38.40
74101;DHT22;62462;52.530;21.682;2023-03-23T13:25:27;19.80;38.70
74101;DHT22;62462;52.530;21.682;2023-03-23T13:28:01;19.70;38.60
74101;DHT22;62462;52.530;21.682;2023-03-23T13:30:28;19.60;39.10
74101;DHT22;62462;52.530;21.682;2023-03-23T13:33:05;19.60;39.70
74101;DHT22;62462;52.530;21.682;2023-03-23T13:35:37;19.40;39.90
74101;DHT22;62462;52.530;21.682;2023-03-23T13:38:34;19.40;40.10
74101;DHT22;62462;52.530;21.682;2023-03-23T13:41:05;19.40;40.20
74101;DHT22;62462;52.530;21.682;2023-03-23T13:43:34;19.40;40.20
74101;DHT22;62462;52.530;21.682;2023-03-23T13:48:48;19.50;40.20
74101;DHT22;62462;52.530;21.682;2023-03-23T13:56:56;19.40;41.00
74101;DHT22;62462;52.530;21.682;2023-03-23T13:59:30;19.30;41.20
74101;DHT22;62462;52.530;21.682;2023-03-23T14:01:57;19.40;41.50
74101;DHT22;62462;52.530;21.682;2023-03-23T14:04:42;19.40;41.70
74101;DHT22;62462;52.530;21.682;2023-03-23T14:07:10;19.40;41.40
74101;DHT22;62462;52.530;21.682;2023-03-23T14:09:42;19.30;41.60
74101;DHT22;62462;52.530;21.682;2023-03-23T14:12:27;19.30;41.50
74101;DHT22;62462;52.530;21.682;2023-03-23T14:15:00;19.30;41.80
74101;DHT22;62462;52.530;21.682;2023-03-23T14:17:33;19.30;42.10
74101;DHT22;62462;52.530;21.682;2023-03-23T14:20:00;19.30;42.00
74101;DHT22;62462;52.530;21.682;2023-03-23T14:22:37;19.30;42.10
74101;DHT22;62462;52.530;21.682;2023-03-23T14:25:16;19.20;41.90
74101;DHT22;62462;52.530;21.682;2023-03-23T14:27:43;19.30;42.20
74101;DHT22;62462;52.530;21.682;2023-03-23T14:30:20;19.20;42.30
74101;DHT22;62462;52.530;21.682;2023-03-23T14:32:46;19.20;42.70
74101;DHT22;62462;52.530;21.682;2023-03-23T14:35:35;19.20;42.80
74101;DHT22;62462;52.530;21.682;2023-03-23T14:38:03;19.20;43.00
74101;DHT22;62462;52.530;21.682;2023-03-23T14:40:31;19.10;42.90
74101;DHT22;62462;52.530;21.682;2023-03-23T14:42:57;19.20;43.30
74101;DHT22;62462;52.530;21.682;2023-03-23T14:45:25;19.10;43.10
74101;DHT22;62462;52.530;21.682;2023-03-23T14:47:57;19.10;43.40
74101;DHT22;62462;52.530;21.682;2023-03-23T14:50:39;19.00;43.60
74101;DHT22;62462;52.530;21.682;2023-03-23T14:53:35;19.00;43.60
74101;DHT22;62462;52.530;21.682;2023-03-23T14:56:06;18.90;43.60
74101;DHT22;62462;52.530;21.682;2023-03-23T14:58:35;18.80;44.20
74101;DHT22;62462;52.530;21.682;2023-03-23T15:01:03;18.80;44.70
74101;DHT22;62462;52.530;21.682;2023-03-23T15:03:35;18.70;45.70
74101;DHT22;62462;52.530;21.682;2023-03-23T15:06:06;18.60;46.70
74101;DHT22;62462;52.530;21.682;2023-03-23T15:08:35;18.50;46.70
74101;DHT22;62462;52.530;21.682;2023-03-23T15:13:27;18.30;47.40
74101;DHT22;62462;52.530;21.682;2023-03-23T15:16:02;18.20;48.20
74101;DHT22;62462;52.530;21.682;2023-03-23T15:18:37;18.00;48.70
74101;DHT22;62462;52.530;21.682;2023-03-23T15:21:19;18.00;49.10
74101;DHT22;62462;52.530;21.682;2023-03-23T15:23:46;17.90;50.20
74101;DHT22;62462;52.530;21.682;2023-03-23T15:26:26;17.90;50.10
74101;DHT22;62462;52.530;21.682;2023-03-23T15:29:25;17.80;50.60
74101;DHT22;62462;52.530;21.682;2023-03-23T15:31:54;17.70;50.60
74101;DHT22;62462;52.530;21.682;2023-03-23T15:34:29;17.60;51.20
74101;DHT22;62462;52.530;21.682;2023-03-23T15:36:59;17.60;51.00
74101;DHT22;62462;52.530;21.682;2023-03-23T15:39:26;17.50;51.00
74101;DHT22;62462;52.530;21.682;2023-03-23T15:41:53;17.50;51.40
74101;DHT22;62462;52.530;21.682;2023-03-23T15:44:29;17.50;51.40
74101;DHT22;62462;52.530;21.682;2023-03-23T15:47:14;17.50;50.80
74101;DHT22;62462;52.530;21.682;2023-03-23T15:49:41;17.50;51.50
74101;DHT22;62462;52.530;21.682;2023-03-23T15:52:12;17.50;51.40
74101;DHT22;62462;52.530;21.682;2023-03-23T15:54:45;17.50;51.10
74101;DHT22;62462;52.530;21.682;2023-03-23T15:57:11;17.50;51.00
74101;DHT22;62462;52.530;21.682;2023-03-23T15:59:37;17.50;51.00
74101;DHT22;62462;52.530;21.682;2023-03-23T16:02:03;17.60;50.90
74101;DHT22;62462;52.530;21.682;2023-03-23T16:04:29;17.60;50.80
74101;DHT22;62462;52.530;21.682;2023-03-23T16:06:56;17.70;50.70
74101;DHT22;62462;52.530;21.682;2023-03-23T16:09:24;17.70;50.60
74101;DHT22;62462;52.530;21.682;2023-03-23T16:11:50;17.70;50.70
74101;DHT22;62462;52.530;21.682;2023-03-23T16:14:16;17.60;51.00
74101;DHT22;62462;52.530;21.682;2023-03-23T16:16:48;17.50;51.20
74101;DHT22;62462;52.530;21.682;2023-03-23T16:19:17;17.50;51.80
74101;DHT22;62462;52.530;21.682;2023-03-23T16:21:45;17.40;52.40
74101;DHT22;62462;52.530;21.682;2023-03-23T16:24:10;17.40;52.80
74101;DHT22;62462;52.530;21.682;2023-03-23T16:26:37;17.30;52.70
74101;DHT22;62462;52.530;21.682;2023-03-23T16:29:11;17.30;53.10
74101;DHT22;62462;52.530;21.682;2023-03-23T16:31:37;17.20;53.50
74101;DHT22;62462;52.530;21.682;2023-03-23T16:34:03;17.10;53.70
74101;DHT22;62462;52.530;21.682;2023-03-23T16:36:29;17.10;53.80
74101;DHT22;62462;52.530;21.682;2023-03-23T16:38:54;17.00;54.00
74101;DHT22;62462;52.530;21.682;2023-03-23T16:41:20;17.00;54.10
74101;DHT22;62462;52.530;21.682;2023-03-23T16:43:46;17.00;54.50
74101;DHT22;62462;52.530;21.682;2023-03-23T16:46:12;17.00;54.70
74101;DHT22;62462;52.530;21.682;2023-03-23T16:48:38;16.90;54.80
74101;DHT22;62462;52.530;21.682;2023-03-23T16:51:05;17.00;54.50
74101;DHT22;62462;52.530;21.682;2023-03-23T16:53:31;17.00;54.50
74101;DHT22;62462;52.530;21.682;2023-03-23T16:55:57;17.00;55.00
74101;DHT22;62462;52.530;21.682;2023-03-23T16:58:24;16.90;55.80
74101;DHT22;62462;52.530;21.682;2023-03-23T17:00:51;16.90;56.30
74101;DHT22;62462;52.530;21.682;2023-03-23T17:03:19;16.70;56.80
74101;DHT22;62462;52.530;21.682;2023-03-23T17:05:47;16.60;57.50
74101;DHT22;62462;52.530;21.682;2023-03-23T17:08:14;16.60;57.90
74101;DHT22;62462;52.530;21.682;2023-03-23T17:10:41;16.40;58.70
74101;DHT22;62462;52.530;21.682;2023-03-23T17:13:08;16.40;58.20
74101;DHT22;62462;52.530;21.682;2023-03-23T17:15:40;16.40;58.90
74101;DHT22;62462;52.530;21.682;2023-03-23T17:18:06;16.40;58.90
74101;DHT22;62462;52.530;21.682;2023-03-23T17:20:33;16.30;59.40
74101;DHT22;62462;52.530;21.682;2023-03-23T17:22:59;16.20;59.60